Time;durP1;ratioP1;P1;durP2;ratioP2;P2;SDS_P1;SDS_P2;PMS_P1;PMS_P2;Temp;Humidity;BMP_temperature;BMP_pressure;BME280_temperature;BME280_humidity;BME280_pressure;Samples;Min_cycle;Max_cycle;Signal;HPM_P1;HPM_P2
2020/12/05 00:00:46;;;;;;;11.95;3.78;;;22.70;99.90;;;;;;5133971;28;20078;-64
2020/12/05 00:03:14;;;;;;;14.55;3.60;;;22.80;99.90;;;;;;5134875;28;20020;-63
2020/12/05 00:05:43;;;;;;;14.30;3.47;;;22.90;99.90;;;;;;5134571;28;20019;-63
2020/12/05 00:08:14;;;;;;;14.55;4.00;;;22.90;99.90;;;;;;5134326;28;20022;-65
2020/12/05 00:10:43;;;;;;;19.30;4.90;;;22.90;99.90;;;;;;5134177;28;20027;-63
2020/12/05 00:13:11;;;;;;;15.50;3.80;;;22.90;99.90;;;;;;5133874;28;20027;-63
2020/12/05 00:15:39;;;;;;;26.30;5.47;;;22.90;99.90;;;;;;5133772;28;20034;-63
2020/12/05 00:18:07;;;;;;;13.95;3.22;;;22.90;99.90;;;;;;5133693;28;20031;-65
2020/12/05 00:20:35;;;;;;;17.50;4.13;;;22.90;99.90;;;;;;5133590;28;20023;-62
2020/12/05 00:23:03;;;;;;;11.15;3.38;;;22.90;99.90;;;;;;5133903;28;20027;-62
2020/12/05 00:25:31;;;;;;;14.88;3.80;;;22.90;99.90;;;;;;5134022;28;20559;-62
2020/12/05 00:27:59;;;;;;;12.25;3.95;;;22.80;99.90;;;;;;5133801;28;20026;-62
2020/12/05 00:30:28;;;;;;;12.57;3.10;;;22.70;99.90;;;;;;5133822;28;20031;-63
2020/12/05 00:32:59;;;;;;;17.55;3.80;;;22.80;99.90;;;;;;5134003;28;20387;-63
2020/12/05 00:35:27;;;;;;;13.70;3.88;;;22.80;99.90;;;;;;5133955;28;20027;-62
2020/12/05 00:37:57;;;;;;;15.57;4.00;;;22.80;99.90;;;;;;5133674;28;20410;-63
2020/12/05 00:40:25;;;;;;;16.38;4.70;;;22.70;99.90;;;;;;5133890;28;20071;-64
2020/12/05 00:42:52;;;;;;;15.88;4.10;;;22.90;99.90;;;;;;5134162;28;20376;-63
2020/12/05 00:45:21;;;;;;;12.68;4.28;;;23.00;99.90;;;;;;5135136;27;20019;-63
2020/12/05 00:47:48;;;;;;;10.60;3.90;;;23.00;99.90;;;;;;5137539;27;20080;-62
2020/12/05 00:50:16;;;;;;;13.10;3.38;;;23.10;99.90;;;;;;5137473;27;20019;-62
2020/12/05 00:52:44;;;;;;;18.08;4.32;;;23.30;99.90;;;;;;5137345;27;20039;-62
2020/12/05 00:55:12;;;;;;;15.48;4.25;;;23.50;99.90;;;;;;5136932;27;20098;-62
2020/12/05 00:57:39;;;;;;;15.27;3.72;;;23.50;99.90;;;;;;5136941;27;20051;-63
2020/12/05 01:00:08;;;;;;;15.57;4.88;;;23.60;99.90;;;;;;5137258;27;20581;-62
2020/12/05 01:02:36;;;;;;;16.02;4.43;;;23.50;99.90;;;;;;5136982;27;20460;-62
2020/12/05 01:05:05;;;;;;;17.25;3.95;;;23.60;99.90;;;;;;5119241;27;20011;-63
2020/12/05 01:07:33;;;;;;;12.68;4.43;;;23.70;99.90;;;;;;5136869;27;20472;-62
2020/12/05 01:10:00;;;;;;;15.27;4.30;;;23.70;99.90;;;;;;5136847;27;20429;-62
2020/12/05 01:12:28;;;;;;;12.23;3.90;;;24.00;99.90;;;;;;5137068;27;20379;-62
2020/12/05 01:15:01;;;;;;;17.23;4.82;;;24.20;99.90;;;;;;5137004;27;20030;-62
2020/12/05 01:17:32;;;;;;;15.63;4.30;;;24.40;99.90;;;;;;5118344;27;20031;-63
2020/12/05 01:20:01;;;;;;;13.13;5.20;;;24.60;99.90;;;;;;5136596;27;20106;-63
2020/12/05 01:22:28;;;;;;;14.65;4.82;;;24.50;99.90;;;;;;5136602;27;20015;-64
2020/12/05 01:24:56;;;;;;;16.52;5.38;;;24.50;99.90;;;;;;5136749;27;20383;-64
2020/12/05 01:27:24;;;;;;;17.42;4.95;;;24.20;99.90;;;;;;5136647;27;20031;-63
2020/12/05 01:29:52;;;;;;;19.48;5.72;;;24.20;99.90;;;;;;5136360;27;20027;-64
2020/12/05 01:32:20;;;;;;;19.02;6.95;;;24.20;99.90;;;;;;5118385;27;20031;-64
2020/12/05 01:34:47;;;;;;;18.13;7.57;;;24.20;99.90;;;;;;5136218;27;20027;-63
2020/12/05 01:37:18;;;;;;;18.42;6.35;;;24.30;99.90;;;;;;5136426;27;20361;-63
2020/12/05 01:39:46;;;;;;;16.23;6.65;;;24.30;99.90;;;;;;5136519;27;20027;-64
2020/12/05 01:42:14;;;;;;;16.08;7.00;;;24.40;99.90;;;;;;5136112;27;20063;-63
2020/12/05 01:44:42;;;;;;;19.98;7.78;;;24.60;99.90;;;;;;5136356;27;20467;-64
2020/12/05 01:47:12;;;;;;;15.07;7.13;;;24.70;99.90;;;;;;5135970;27;20031;-61
2020/12/05 01:49:39;;;;;;;17.30;7.70;;;24.80;99.90;;;;;;5118056;27;20066;-62
2020/12/05 01:52:07;;;;;;;14.07;6.35;;;24.90;99.90;;;;;;5100671;27;20027;-65
2020/12/05 01:54:37;;;;;;;19.08;7.25;;;25.10;99.90;;;;;;5135873;27;20038;-64
2020/12/05 01:57:06;;;;;;;16.13;7.45;;;25.20;99.90;;;;;;5134750;27;20058;-65
2020/12/05 01:59:34;;;;;;;17.30;6.88;;;25.10;99.90;;;;;;5136022;27;20410;-65
2020/12/05 02:02:06;;;;;;;17.63;8.40;;;25.10;99.90;;;;;;5135920;27;20031;-65
2020/12/05 02:04:56;;;;;;;14.45;5.50;;;25.10;99.90;;;;;;5135572;27;20015;-64
2020/12/05 02:07:54;;;;;;;17.67;7.03;;;25.30;99.90;;;;;;5135888;27;20459;-63
2020/12/05 02:10:28;;;;;;;18.85;6.63;;;25.20;99.90;;;;;;5105477;28;20499;-64
2020/12/05 02:13:18;;;;;;;14.65;6.65;;;25.10;99.90;;;;;;5113148;28;20031;-63
2020/12/05 02:15:49;;;;;;;15.57;6.03;;;25.20;99.90;;;;;;5072102;28;20067;-64
2020/12/05 02:18:18;;;;;;;20.30;7.38;;;25.30;99.90;;;;;;5072213;28;20040;-64
2020/12/05 02:20:47;;;;;;;12.93;5.97;;;25.30;99.90;;;;;;5072274;28;20063;-64
2020/12/05 02:23:17;;;;;;;13.05;5.95;;;25.30;99.90;;;;;;5072063;28;20024;-63
2020/12/05 02:25:56;;;;;;;16.85;6.45;;;25.30;99.90;;;;;;5032223;28;20021;-64
2020/12/05 02:28:24;;;;;;;15.82;6.25;;;25.30;99.90;;;;;;5032401;28;20036;-64
2020/12/05 02:30:52;;;;;;;12.00;5.60;;;25.30;99.90;;;;;;5015805;28;20040;-63
2020/12/05 02:33:20;;;;;;;13.27;5.82;;;25.40;99.90;;;;;;5032175;28;20041;-64
2020/12/05 02:35:48;;;;;;;14.48;5.85;;;25.40;99.90;;;;;;5032028;28;20068;-65
2020/12/05 02:38:32;;;;;;;11.75;5.38;;;25.50;99.90;;;;;;5031627;28;20109;-66
2020/12/05 02:41:01;;;;;;;14.45;5.45;;;25.70;99.90;;;;;;5033576;28;20049;-66
2020/12/05 02:43:29;;;;;;;14.75;6.32;;;25.70;99.90;;;;;;5051885;28;20032;-64
2020/12/05 02:45:58;;;;;;;15.40;7.05;;;25.60;99.90;;;;;;5058476;28;20079;-62
2020/12/05 02:48:26;;;;;;;13.85;6.57;;;25.30;99.90;;;;;;5091725;28;20016;-65
2020/12/05 02:50:54;;;;;;;14.90;6.95;;;25.20;99.90;;;;;;5074882;28;20134;-67
2020/12/05 02:53:22;;;;;;;14.85;7.13;;;25.10;99.90;;;;;;5091879;28;20069;-66
2020/12/05 02:55:50;;;;;;;14.55;7.20;;;25.10;99.90;;;;;;5094559;28;20459;-65
2020/12/05 02:58:17;;;;;;;16.75;7.10;;;25.10;99.90;;;;;;5135191;27;20106;-66
2020/12/05 03:00:45;;;;;;;13.95;7.03;;;25.10;99.90;;;;;;5134798;27;20126;-65
2020/12/05 03:03:13;;;;;;;14.15;7.63;;;25.00;99.90;;;;;;5134932;27;20019;-67
2020/12/05 03:05:41;;;;;;;14.45;8.05;;;25.10;99.90;;;;;;5134552;27;20385;-65
2020/12/05 03:08:09;;;;;;;15.27;8.40;;;25.20;99.90;;;;;;5116407;27;20106;-65
2020/12/05 03:10:36;;;;;;;14.68;7.85;;;25.20;99.90;;;;;;5134232;27;20237;-67
2020/12/05 03:13:04;;;;;;;14.20;8.10;;;25.20;99.90;;;;;;5135154;27;20023;-67
2020/12/05 03:15:32;;;;;;;16.67;8.27;;;25.30;99.90;;;;;;5134369;27;20078;-66
2020/12/05 03:18:00;;;;;;;19.10;8.63;;;25.30;99.90;;;;;;5134301;27;20477;-66
2020/12/05 03:20:27;;;;;;;14.57;8.40;;;25.40;99.90;;;;;;5115755;27;20451;-66
2020/12/05 03:22:56;;;;;;;18.30;11.18;;;25.40;99.90;;;;;;5115832;28;20034;-66
2020/12/05 03:25:24;;;;;;;18.98;12.05;;;25.30;99.90;;;;;;5081766;28;20452;-65
2020/12/05 03:27:52;;;;;;;20.10;11.80;;;25.20;99.90;;;;;;5134157;27;20096;-67
2020/12/05 03:30:20;;;;;;;18.25;11.77;;;25.10;99.90;;;;;;5134403;27;20023;-66
2020/12/05 03:32:48;;;;;;;19.48;11.73;;;25.10;99.90;;;;;;5116067;27;20035;-66
2020/12/05 03:35:17;;;;;;;21.50;12.18;;;24.90;99.90;;;;;;5134641;27;20034;-65
2020/12/05 03:37:44;;;;;;;18.92;12.68;;;24.80;99.90;;;;;;5134547;27;20110;-66
2020/12/05 03:40:12;;;;;;;21.65;13.50;;;24.80;99.90;;;;;;5134047;28;20029;-66
2020/12/05 03:42:40;;;;;;;20.15;13.27;;;24.70;99.90;;;;;;5134624;28;20019;-66
2020/12/05 03:45:08;;;;;;;22.25;14.23;;;24.60;99.90;;;;;;5134242;28;20051;-66
2020/12/05 03:47:36;;;;;;;20.17;13.15;;;24.50;99.90;;;;;;5134320;28;20050;-66
2020/12/05 03:50:06;;;;;;;20.60;14.23;;;24.40;99.90;;;;;;5134094;28;20110;-66
2020/12/05 03:52:34;;;;;;;21.25;13.43;;;24.30;99.90;;;;;;5048469;28;20039;-65
2020/12/05 03:55:02;;;;;;;22.50;13.90;;;24.30;99.90;;;;;;5134201;28;20493;-66
2020/12/05 03:57:30;;;;;;;23.35;14.55;;;24.20;99.90;;;;;;5133700;28;20051;-66
2020/12/05 03:59:58;;;;;;;25.73;14.85;;;24.20;99.90;;;;;;5134437;28;20031;-66
2020/12/05 04:02:26;;;;;;;22.88;13.50;;;24.10;99.90;;;;;;5077953;28;20024;-66
2020/12/05 04:04:54;;;;;;;21.83;13.18;;;24.00;99.90;;;;;;5131200;28;20359;-66
2020/12/05 04:07:21;;;;;;;22.60;13.75;;;24.10;99.90;;;;;;5134182;28;20023;-65
2020/12/05 04:09:49;;;;;;;22.15;12.13;;;24.00;99.90;;;;;;5134185;28;20059;-65
2020/12/05 04:12:16;;;;;;;23.55;12.85;;;24.10;99.90;;;;;;5134158;28;20120;-65
2020/12/05 04:14:44;;;;;;;16.98;11.48;;;24.10;99.90;;;;;;5134855;28;20459;-65
2020/12/05 04:17:13;;;;;;;22.40;12.73;;;24.00;99.90;;;;;;5134073;28;20106;-65
2020/12/05 04:19:40;;;;;;;18.08;12.43;;;23.90;99.90;;;;;;5134015;27;20068;-65
2020/12/05 04:22:08;;;;;;;20.75;11.88;;;23.90;99.90;;;;;;5138105;27;20015;-65
2020/12/05 04:24:36;;;;;;;22.60;11.38;;;23.90;99.90;;;;;;5137837;27;20019;-65
2020/12/05 04:27:03;;;;;;;20.80;10.63;;;23.80;99.90;;;;;;5137654;27;20022;-66
2020/12/05 04:29:31;;;;;;;19.15;8.75;;;23.80;99.90;;;;;;5138588;27;20502;-65
2020/12/05 04:31:59;;;;;;;17.15;8.80;;;23.70;99.90;;;;;;5101820;27;20031;-65
2020/12/05 04:34:27;;;;;;;20.83;9.65;;;23.70;99.90;;;;;;5137819;27;20035;-66
2020/12/05 04:36:55;;;;;;;19.30;8.93;;;23.60;99.90;;;;;;5137751;27;20029;-66
2020/12/05 04:39:22;;;;;;;21.35;9.25;;;23.60;99.90;;;;;;5138010;27;20030;-66
2020/12/05 04:41:51;;;;;;;16.73;8.27;;;23.50;99.90;;;;;;5137398;27;20034;-66
2020/12/05 04:44:19;;;;;;;17.25;7.68;;;23.50;99.90;;;;;;5138396;27;20058;-66
2020/12/05 04:46:48;;;;;;;18.08;8.15;;;23.50;99.90;;;;;;5137222;27;20075;-66
2020/12/05 04:49:17;;;;;;;15.27;7.80;;;23.50;99.90;;;;;;5137183;27;20038;-65
2020/12/05 04:51:57;;;;;;;19.15;9.18;;;23.60;99.90;;;;;;5137393;27;20075;-65
2020/12/05 04:54:29;;;;;;;19.33;8.25;;;23.60;99.90;;;;;;5137128;27;20039;-66
2020/12/05 04:56:57;;;;;;;17.70;8.18;;;23.60;99.90;;;;;;5136965;27;20484;-66
2020/12/05 04:59:25;;;;;;;18.90;8.52;;;23.60;99.90;;;;;;5136995;27;20015;-66
2020/12/05 05:01:56;;;;;;;14.50;8.27;;;23.60;99.90;;;;;;5137158;27;20023;-66
2020/12/05 05:04:26;;;;;;;18.75;8.48;;;23.60;99.90;;;;;;5136992;27;20050;-66
2020/12/05 05:07:04;;;;;;;22.83;9.45;;;23.70;99.90;;;;;;5136767;27;20015;-66
2020/12/05 05:09:32;;;;;;;18.55;8.93;;;23.60;99.90;;;;;;5137256;27;20088;-64
2020/12/05 05:12:00;;;;;;;17.30;9.45;;;23.60;99.90;;;;;;5136760;27;20019;-65
2020/12/05 05:14:35;;;;;;;19.60;9.15;;;23.50;99.90;;;;;;5137002;27;20425;-66
2020/12/05 05:17:06;;;;;;;18.30;9.65;;;23.40;99.90;;;;;;5118250;27;20088;-66
2020/12/05 05:19:38;;;;;;;18.50;9.52;;;23.30;99.90;;;;;;5136892;27;20425;-66
2020/12/05 05:22:07;;;;;;;15.15;9.45;;;23.30;99.90;;;;;;5137066;27;20378;-65
2020/12/05 05:24:35;;;;;;;20.42;9.52;;;23.30;99.90;;;;;;5136957;27;20015;-65
2020/12/05 05:27:04;;;;;;;20.88;9.75;;;23.30;99.90;;;;;;5117899;27;20023;-65
2020/12/05 05:29:43;;;;;;;18.15;9.43;;;23.20;99.90;;;;;;5136643;27;20023;-66
2020/12/05 05:32:27;;;;;;;18.38;9.35;;;23.20;99.90;;;;;;5137118;27;20359;-66
2020/12/05 05:35:15;;;;;;;14.10;8.07;;;23.20;99.90;;;;;;5136497;27;20046;-66
2020/12/05 05:37:44;;;;;;;16.55;7.28;;;23.30;99.90;;;;;;5109308;28;20061;-66
2020/12/05 05:40:14;;;;;;;18.88;8.13;;;23.30;99.90;;;;;;5113726;28;20035;-66
2020/12/05 05:42:43;;;;;;;17.40;7.78;;;23.30;99.90;;;;;;5113676;28;20081;-66
2020/12/05 05:45:27;;;;;;;15.20;7.40;;;23.30;99.90;;;;;;5113498;28;20035;-65
2020/12/05 05:48:04;;;;;;;17.52;8.13;;;23.30;99.90;;;;;;5114007;28;20084;-65
2020/12/05 05:50:35;;;;;;;16.92;8.00;;;23.20;99.90;;;;;;5113999;28;20102;-66
2020/12/05 05:53:03;;;;;;;;;;;23.20;99.90;;;;;;5114015;28;20035;-65
2020/12/05 05:55:43;;;;;;;17.30;6.78;;;23.20;99.90;;;;;;5113045;28;19904;-65
2020/12/05 05:58:13;;;;;;;15.25;7.50;;;23.20;99.90;;;;;;5113427;28;20039;-65
2020/12/05 06:00:44;;;;;;;18.15;7.93;;;23.10;99.90;;;;;;5113285;28;20110;-65
2020/12/05 06:03:19;;;;;;;23.40;9.50;;;23.20;99.90;;;;;;5114119;28;20028;-66
2020/12/05 06:05:50;;;;;;;16.00;9.38;;;23.10;99.90;;;;;;5096069;28;20086;-66
2020/12/05 06:08:21;;;;;;;;;;;23.10;99.90;;;;;;5085017;27;20039;-66
2020/12/05 06:10:55;;;;;;;17.60;9.82;;;23.10;99.90;;;;;;5135920;27;20355;-66
2020/12/05 06:13:26;;;;;;;16.25;10.27;;;23.10;99.90;;;;;;5136064;27;20034;-66
2020/12/05 06:15:53;;;;;;;;;;;23.10;99.90;;;;;;5136247;27;20019;-66
2020/12/05 06:18:22;;;;;;;15.80;9.75;;;23.20;99.90;;;;;;5135761;27;20263;-66
2020/12/05 06:20:50;;;;;;;12.63;8.82;;;23.20;99.90;;;;;;5135262;27;20096;-65
2020/12/05 06:23:41;;;;;;;15.35;9.18;;;23.20;99.90;;;;;;5135301;27;20031;-65
2020/12/05 06:26:08;;;;;;;;;;;23.30;99.90;;;;;;5113097;28;20032;-65
2020/12/05 06:28:40;;;;;;;16.10;9.82;;;23.40;99.90;;;;;;5113415;28;20382;-65
2020/12/05 06:31:08;;;;;;;16.92;9.35;;;23.40;99.90;;;;;;5112740;28;20480;-65
2020/12/05 06:33:44;;;;;;;13.95;9.35;;;23.50;99.90;;;;;;5112173;28;20031;-65
2020/12/05 06:36:36;;;;;;;15.90;8.65;;;23.50;99.90;;;;;;5111990;28;20027;-65
2020/12/05 06:39:23;;;;;;;13.30;8.32;;;23.50;99.90;;;;;;5071434;28;20121;-65
2020/12/05 06:41:52;;;;;;;13.18;9.52;;;23.40;99.90;;;;;;5071136;28;20033;-65
2020/12/05 06:44:24;;;;;;;17.85;9.35;;;23.30;99.90;;;;;;5070665;28;20028;-67
2020/12/05 06:46:55;;;;;;;17.77;9.52;;;23.30;99.90;;;;;;5071464;28;20532;-64
2020/12/05 06:49:45;;;;;;;19.73;8.80;;;23.30;99.90;;;;;;5071336;28;20033;-65
2020/12/05 06:52:33;;;;;;;18.70;9.20;;;23.30;99.90;;;;;;5070854;28;20116;-64
2020/12/05 06:55:08;;;;;;;16.23;9.65;;;23.30;99.90;;;;;;5071125;28;20036;-65
2020/12/05 06:57:37;;;;;;;16.50;9.45;;;23.30;99.90;;;;;;5084927;28;20052;-65
2020/12/05 07:00:25;;;;;;;18.98;9.43;;;23.40;99.90;;;;;;5091153;28;20040;-66
2020/12/05 07:02:58;;;;;;;15.10;9.88;;;23.40;99.90;;;;;;5090818;28;20024;-65
2020/12/05 07:05:50;;;;;;;16.65;9.90;;;23.30;99.90;;;;;;5091154;28;20546;-65
2020/12/05 07:08:26;;;;;;;14.77;9.88;;;23.30;99.90;;;;;;5031257;28;20498;-66
2020/12/05 07:11:14;;;;;;;15.95;9.45;;;23.30;99.90;;;;;;5032643;28;20056;-66
2020/12/05 07:13:45;;;;;;;20.20;10.27;;;23.30;99.90;;;;;;5031322;28;20095;-65
2020/12/05 07:16:39;;;;;;;18.52;9.70;;;23.20;99.90;;;;;;5031555;28;20116;-65
2020/12/05 07:19:07;;;;;;;17.48;10.25;;;23.10;99.90;;;;;;5002765;28;20472;-62
2020/12/05 07:21:35;;;;;;;18.63;10.35;;;23.10;99.90;;;;;;4991877;28;20026;-64
2020/12/05 07:24:03;;;;;;;21.63;10.85;;;23.00;99.90;;;;;;4992452;28;20483;-62
2020/12/05 07:26:30;;;;;;;16.95;10.20;;;23.00;99.90;;;;;;4991471;28;20030;-63
2020/12/05 07:28:58;;;;;;;23.15;11.20;;;23.00;99.90;;;;;;4991501;28;20375;-64
2020/12/05 07:31:26;;;;;;;18.02;10.50;;;23.00;99.90;;;;;;4991171;28;20045;-65
2020/12/05 07:33:55;;;;;;;20.15;10.80;;;22.90;99.90;;;;;;4991113;28;20086;-65
2020/12/05 07:36:23;;;;;;;24.73;11.02;;;22.90;99.90;;;;;;4991130;28;20034;-65
2020/12/05 07:38:50;;;;;;;21.35;11.20;;;22.80;99.90;;;;;;5010234;28;20241;-65
2020/12/05 07:41:20;;;;;;;19.60;10.52;;;22.80;99.90;;;;;;5050175;28;20115;-64
2020/12/05 07:43:49;;;;;;;17.77;10.40;;;22.70;99.90;;;;;;5056077;28;20036;-62
2020/12/05 07:46:17;;;;;;;17.13;10.32;;;22.80;99.90;;;;;;5090410;28;20032;-63
2020/12/05 07:48:45;;;;;;;22.13;11.00;;;22.70;99.90;;;;;;5090915;28;20016;-63
2020/12/05 07:51:14;;;;;;;22.08;11.52;;;22.80;99.90;;;;;;5133277;28;20019;-62
2020/12/05 07:53:44;;;;;;;19.40;11.10;;;22.80;99.90;;;;;;5133663;28;20027;-61
2020/12/05 07:56:21;;;;;;;18.85;10.52;;;22.80;99.90;;;;;;5135842;27;20403;-62
2020/12/05 07:58:54;;;;;;;17.80;11.00;;;22.80;99.90;;;;;;5137851;27;20030;-61
2020/12/05 08:01:58;;;;;;;22.65;11.45;;;22.80;99.90;;;;;;5119626;27;20090;-61
2020/12/05 08:04:52;;;;;;;20.33;11.85;;;22.90;99.90;;;;;;5094791;28;20453;-61
2020/12/05 08:07:42;;;;;;;19.55;10.70;;;22.90;99.90;;;;;;5054198;28;20033;-60
2020/12/05 08:10:15;;;;;;;19.27;10.85;;;22.90;99.90;;;;;;5014289;28;20345;-61
2020/12/05 08:13:21;;;;;;;15.63;9.80;;;22.80;99.90;;;;;;5014604;28;20124;-60
2020/12/05 08:16:08;;;;;;;17.85;10.65;;;22.90;99.90;;;;;;4975264;28;20130;-61
2020/12/05 08:18:38;;;;;;;19.73;10.98;;;22.90;99.90;;;;;;4936812;29;20040;-60
2020/12/05 08:21:06;;;;;;;17.13;10.80;;;22.90;99.90;;;;;;4936566;29;20118;-63
2020/12/05 08:23:40;;;;;;;21.05;10.13;;;22.90;99.90;;;;;;4936578;29;20044;-65
2020/12/05 08:26:15;;;;;;;17.70;9.60;;;22.90;99.90;;;;;;4936768;29;20036;-63
2020/12/05 08:28:47;;;;;;;22.55;11.30;;;22.90;99.90;;;;;;4920640;29;20031;-58
2020/12/05 08:31:15;;;;;;;17.30;10.10;;;22.90;99.90;;;;;;4921228;29;20468;-69
2020/12/05 08:33:48;;;;;;;19.13;10.88;;;22.90;99.90;;;;;;4920477;29;20199;-60
2020/12/05 08:36:22;;;;;;;17.27;10.55;;;22.90;99.90;;;;;;4974398;28;20038;-59
2020/12/05 08:38:50;;;;;;;22.33;10.65;;;22.90;99.90;;;;;;4989849;28;20505;-59
2020/12/05 08:41:18;;;;;;;21.25;10.43;;;22.90;99.90;;;;;;5017536;28;20120;-59
2020/12/05 08:43:46;;;;;;;23.50;10.70;;;22.90;99.90;;;;;;5033691;28;20124;-60
2020/12/05 08:46:19;;;;;;;21.05;10.23;;;22.90;99.90;;;;;;5000908;28;20042;-58
2020/12/05 08:48:48;;;;;;;22.30;11.45;;;22.90;99.90;;;;;;5033793;28;20025;-60
2020/12/05 08:51:18;;;;;;;22.33;10.52;;;22.80;99.90;;;;;;5033444;28;20022;-60
2020/12/05 08:53:45;;;;;;;21.88;10.77;;;22.70;99.90;;;;;;5062643;28;20481;-60
2020/12/05 08:56:20;;;;;;;21.92;11.57;;;22.70;99.90;;;;;;5110817;27;20513;-59
2020/12/05 08:58:48;;;;;;;21.73;12.13;;;22.50;99.90;;;;;;5136830;27;20505;-61
2020/12/05 09:01:16;;;;;;;28.23;12.52;;;22.40;99.90;;;;;;5136857;27;20392;-60
2020/12/05 09:03:44;;;;;;;24.50;13.48;;;22.30;99.90;;;;;;5136631;27;20023;-59
2020/12/05 09:06:12;;;;;;;23.95;13.82;;;22.30;99.90;;;;;;5100321;27;20031;-60
2020/12/05 09:08:44;;;;;;;25.27;13.80;;;22.30;99.90;;;;;;5136545;27;20380;-60
2020/12/05 09:11:21;;;;;;;19.80;13.88;;;22.30;99.90;;;;;;5136652;27;20019;-60
2020/12/05 09:13:49;;;;;;;22.23;13.80;;;22.20;99.90;;;;;;5136931;27;20051;-59
2020/12/05 09:16:18;;;;;;;25.38;13.52;;;22.20;99.90;;;;;;5136106;27;20137;-59
2020/12/05 09:18:48;;;;;;;22.55;14.05;;;22.20;99.90;;;;;;5136754;27;20011;-59
2020/12/05 09:21:20;;;;;;;21.58;13.45;;;22.20;99.90;;;;;;5136554;27;20058;-60
2020/12/05 09:24:07;;;;;;;17.48;13.27;;;22.20;99.90;;;;;;5136024;27;20027;-60
2020/12/05 09:26:55;;;;;;;19.00;12.07;;;22.20;99.90;;;;;;5093001;28;20036;-60
2020/12/05 09:29:23;;;;;;;18.83;11.60;;;22.20;99.90;;;;;;5092945;28;20046;-59
2020/12/05 09:31:56;;;;;;;17.20;11.50;;;22.20;99.90;;;;;;5092806;28;20028;-59
2020/12/05 09:34:43;;;;;;;18.48;12.45;;;22.10;99.90;;;;;;5093039;28;20135;-62
2020/12/05 09:37:15;;;;;;;16.10;11.05;;;22.20;99.90;;;;;;5052740;28;20362;-62
2020/12/05 09:39:43;;;;;;;15.50;11.00;;;22.30;99.90;;;;;;5053041;28;20095;-62
2020/12/05 09:42:23;;;;;;;14.70;10.80;;;22.30;99.90;;;;;;5052539;28;20073;-62
2020/12/05 09:44:51;;;;;;;18.80;10.88;;;22.30;99.90;;;;;;5052122;28;20036;-61
2020/12/05 09:47:19;;;;;;;16.02;10.73;;;22.40;99.90;;;;;;5051899;28;20025;-61
2020/12/05 09:50:14;;;;;;;16.95;10.38;;;22.40;99.90;;;;;;5035326;28;20489;-60
2020/12/05 09:52:43;;;;;;;20.17;10.68;;;22.30;99.90;;;;;;5052159;28;20076;-60
2020/12/05 09:55:12;;;;;;;14.57;10.73;;;22.40;99.90;;;;;;5051816;28;20064;-59
2020/12/05 09:57:41;;;;;;;16.55;10.68;;;22.20;99.90;;;;;;5062885;28;20041;-58
2020/12/05 10:00:12;;;;;;;15.00;10.05;;;22.20;99.90;;;;;;5055411;28;20105;-59
2020/12/05 10:02:41;;;;;;;14.95;10.13;;;22.10;99.90;;;;;;5071713;28;20511;-60
2020/12/05 10:05:11;;;;;;;16.48;10.75;;;22.00;99.90;;;;;;5071564;28;20116;-59
2020/12/05 10:07:40;;;;;;;13.18;9.63;;;22.00;99.90;;;;;;5084773;28;20035;-60
2020/12/05 10:10:10;;;;;;;14.95;10.45;;;22.00;99.90;;;;;;5114660;28;20475;-60
2020/12/05 10:12:44;;;;;;;15.32;9.85;;;21.90;99.90;;;;;;5114698;28;20107;-61
2020/12/05 10:15:15;;;;;;;16.42;9.50;;;21.90;99.90;;;;;;5114296;28;20035;-61
2020/12/05 10:17:44;;;;;;;11.98;8.63;;;21.80;99.90;;;;;;5079270;28;20464;-59
2020/12/05 10:20:12;;;;;;;16.30;9.88;;;21.70;99.90;;;;;;5114193;28;20061;-59
2020/12/05 10:22:40;;;;;;;13.02;8.32;;;21.70;99.90;;;;;;5114056;28;20027;-60
2020/12/05 10:25:08;;;;;;;12.75;8.13;;;21.70;99.90;;;;;;5114051;28;20016;-60
2020/12/05 10:27:38;;;;;;;11.60;6.95;;;21.60;99.90;;;;;;5113879;28;20031;-60
2020/12/05 10:30:09;;;;;;;10.25;7.80;;;21.60;99.90;;;;;;5114355;28;20027;-59
2020/12/05 10:32:37;;;;;;;9.38;6.85;;;21.50;99.90;;;;;;5095749;28;20035;-59
2020/12/05 10:35:06;;;;;;;9.50;6.18;;;21.50;99.90;;;;;;5114218;28;20533;-59
2020/12/05 10:37:34;;;;;;;11.07;6.68;;;21.40;99.90;;;;;;5078752;28;20406;-59
2020/12/05 10:40:02;;;;;;;10.18;6.45;;;21.40;99.90;;;;;;5113787;28;20020;-59
2020/12/05 10:42:30;;;;;;;11.68;7.20;;;21.30;99.90;;;;;;5114032;28;20456;-59
2020/12/05 10:44:57;;;;;;;14.45;7.35;;;21.20;99.90;;;;;;5113706;28;20083;-59
2020/12/05 10:47:26;;;;;;;12.40;7.32;;;21.20;99.90;;;;;;5114184;28;20024;-59
2020/12/05 10:49:54;;;;;;;14.05;7.32;;;21.10;99.90;;;;;;5113958;28;20028;-59
2020/12/05 10:52:22;;;;;;;11.82;6.30;;;21.10;99.90;;;;;;5112583;28;20028;-60
2020/12/05 10:54:50;;;;;;;8.30;5.35;;;20.90;99.90;;;;;;5113866;28;20396;-60
2020/12/05 10:57:18;;;;;;;9.20;6.03;;;20.90;99.90;;;;;;5130484;27;20563;-60
2020/12/05 10:59:46;;;;;;;8.90;5.45;;;20.90;99.90;;;;;;5134378;27;20033;-59
2020/12/05 11:02:15;;;;;;;7.65;5.28;;;20.90;99.90;;;;;;5134344;27;20020;-60
2020/12/05 11:04:42;;;;;;;6.50;4.45;;;20.80;99.90;;;;;;5133948;27;20550;-60
2020/12/05 11:07:10;;;;;;;8.35;4.57;;;20.80;99.90;;;;;;5115662;27;20019;-60
2020/12/05 11:09:38;;;;;;;4.68;3.42;;;20.80;99.90;;;;;;5134266;27;20055;-60
2020/12/05 11:12:06;;;;;;;4.38;3.17;;;20.80;99.90;;;;;;5134162;27;20060;-60
2020/12/05 11:14:34;;;;;;;5.63;2.85;;;20.70;99.90;;;;;;5134191;27;20340;-60
2020/12/05 11:17:02;;;;;;;3.53;2.03;;;20.70;99.90;;;;;;5133878;27;20072;-60
2020/12/05 11:19:30;;;;;;;4.07;2.05;;;20.70;99.90;;;;;;5134092;27;20475;-62
2020/12/05 11:21:58;;;;;;;4.80;2.05;;;20.80;99.90;;;;;;5134098;27;20023;-59
2020/12/05 11:24:26;;;;;;;4.45;2.47;;;20.80;99.90;;;;;;5115390;27;20433;-60
2020/12/05 11:26:55;;;;;;;6.03;1.90;;;20.90;99.90;;;;;;5133666;27;20019;-60
2020/12/05 11:29:23;;;;;;;8.23;1.95;;;20.90;99.90;;;;;;5133567;27;20027;-60
2020/12/05 11:31:51;;;;;;;3.38;1.65;;;21.00;99.90;;;;;;5133604;27;20118;-60
2020/12/05 11:34:20;;;;;;;6.32;1.83;;;21.00;99.90;;;;;;5133656;27;20026;-61
2020/12/05 11:36:48;;;;;;;3.13;1.60;;;21.10;99.90;;;;;;5115119;27;20139;-61
2020/12/05 11:39:16;;;;;;;2.90;1.90;;;21.10;99.90;;;;;;5125455;27;20039;-60
2020/12/05 11:41:44;;;;;;;7.53;2.22;;;21.20;99.90;;;;;;5097736;28;20031;-60
2020/12/05 11:44:12;;;;;;;3.53;1.60;;;21.20;99.90;;;;;;5133343;28;20023;-61
2020/12/05 11:46:41;;;;;;;4.40;1.98;;;21.20;99.90;;;;;;5133555;28;20023;-61
2020/12/05 11:49:09;;;;;;;1.92;1.60;;;21.10;99.90;;;;;;5115674;28;20038;-61
2020/12/05 11:51:38;;;;;;;4.05;1.85;;;21.10;99.90;;;;;;5133611;28;20433;-62
2020/12/05 11:54:06;;;;;;;1.80;1.58;;;21.00;99.90;;;;;;5133262;28;20020;-61
2020/12/05 11:56:35;;;;;;;5.60;2.20;;;21.10;99.90;;;;;;5122375;28;20047;-61
2020/12/05 11:59:03;;;;;;;4.47;1.70;;;21.10;99.90;;;;;;5113106;28;20124;-61
2020/12/05 12:01:31;;;;;;;6.03;1.88;;;21.00;99.90;;;;;;5094419;28;20061;-61
2020/12/05 12:03:59;;;;;;;4.05;1.95;;;21.00;99.90;;;;;;5112986;28;20024;-59
2020/12/05 12:06:28;;;;;;;7.00;1.80;;;21.00;99.90;;;;;;5113211;28;20059;-60
2020/12/05 12:08:56;;;;;;;3.47;1.60;;;21.00;99.90;;;;;;5112759;28;20043;-61
2020/12/05 12:11:26;;;;;;;3.08;1.58;;;21.00;99.90;;;;;;5095220;28;20056;-61
2020/12/05 12:13:54;;;;;;;3.70;1.50;;;21.00;99.90;;;;;;5112917;28;20051;-61
2020/12/05 12:16:22;;;;;;;5.45;1.80;;;20.90;99.90;;;;;;5113157;28;20635;-61
2020/12/05 12:18:53;;;;;;;2.72;1.65;;;21.00;99.90;;;;;;5094417;28;20035;-61
2020/12/05 12:21:28;;;;;;;2.97;1.50;;;21.10;99.90;;;;;;5095447;28;20032;-60
2020/12/05 12:23:56;;;;;;;3.47;1.63;;;21.10;99.90;;;;;;5113196;28;20012;-61
2020/12/05 12:26:29;;;;;;;4.03;2.20;;;21.10;99.90;;;;;;5112622;28;20407;-61
2020/12/05 12:28:58;;;;;;;2.70;1.60;;;21.10;99.90;;;;;;5112605;28;20032;-62
2020/12/05 12:31:26;;;;;;;3.58;1.50;;;21.00;99.90;;;;;;5094975;28;20103;-60
2020/12/05 12:33:57;;;;;;;2.72;1.70;;;21.00;99.90;;;;;;5112873;28;20095;-60
2020/12/05 12:36:25;;;;;;;2.88;1.80;;;21.00;99.90;;;;;;5112837;28;20124;-61
2020/12/05 12:38:54;;;;;;;5.00;1.80;;;21.00;99.90;;;;;;5112505;28;20371;-60
2020/12/05 12:41:22;;;;;;;3.05;1.55;;;20.90;99.90;;;;;;5078053;28;20448;-61
2020/12/05 12:43:51;;;;;;;3.97;1.60;;;21.00;99.90;;;;;;5116405;28;20024;-61
2020/12/05 12:46:22;;;;;;;4.45;1.90;;;20.90;99.90;;;;;;5116119;28;20486;-61
2020/12/05 12:48:50;;;;;;;2.97;1.70;;;20.90;99.90;;;;;;5116129;28;20019;-60
2020/12/05 12:51:23;;;;;;;2.97;1.90;;;20.80;99.90;;;;;;5116345;28;20480;-61
2020/12/05 12:53:52;;;;;;;2.30;2.05;;;20.80;99.90;;;;;;5116151;28;20174;-61